createdAt,value
2018-11-23T00:00:28.167Z,1.85
2018-11-23T00:02:57.300Z,1.71
2018-11-23T00:05:25.448Z,1.81
2018-11-23T00:07:54.225Z,1.77
2018-11-23T00:10:23.522Z,1.71
2018-11-23T00:12:52.002Z,1.78
2018-11-23T00:15:21.213Z,1.85
2018-11-23T00:17:49.425Z,1.82
2018-11-23T00:20:18.905Z,1.76
2018-11-23T00:22:47.139Z,1.82
2018-11-23T00:25:24.827Z,1.81
2018-11-23T00:27:53.498Z,1.87
2018-11-23T00:30:25.884Z,1.81
2018-11-23T00:32:54.325Z,1.81
2018-11-23T00:35:24.857Z,1.79
2018-11-23T00:37:53.556Z,1.80
2018-11-23T00:40:25.022Z,1.72
2018-11-23T00:42:53.497Z,1.89
2018-11-23T00:45:21.713Z,1.89
2018-11-23T00:47:50.565Z,1.87
2018-11-23T00:50:19.903Z,1.85
2018-11-23T00:52:48.354Z,1.92
2018-11-23T00:55:17.669Z,1.81
2018-11-23T00:57:45.783Z,1.87
2018-11-23T01:00:15.453Z,1.77
2018-11-23T01:02:43.955Z,1.81
2018-11-23T01:05:13.820Z,1.91
2018-11-23T01:07:42.622Z,1.73
2018-11-23T01:10:12.481Z,1.79
2018-11-23T01:12:40.715Z,1.70
2018-11-23T01:15:09.561Z,1.80
2018-11-23T01:17:37.697Z,1.73
2018-11-23T01:20:07.998Z,1.75
2018-11-23T01:22:36.189Z,1.76
2018-11-23T01:25:04.765Z,1.64
2018-11-23T01:27:32.905Z,1.50
2018-11-23T01:30:01.069Z,1.68
2018-11-23T01:32:29.221Z,1.58
2018-11-23T01:34:57.443Z,1.70
2018-11-23T01:37:25.675Z,1.48
2018-11-23T01:39:53.867Z,1.63
2018-11-23T01:42:22.019Z,1.68
2018-11-23T01:44:51.975Z,1.44
2018-11-23T01:47:22.524Z,1.55
2018-11-23T01:49:50.785Z,1.58
2018-11-23T01:52:18.933Z,1.55
2018-11-23T01:54:47.188Z,1.34
2018-11-23T01:57:15.361Z,1.51
2018-11-23T01:59:43.532Z,1.45
2018-11-23T02:02:11.697Z,1.47
2018-11-23T02:04:39.901Z,1.51
2018-11-23T02:07:08.282Z,1.62
2018-11-23T02:09:36.535Z,1.42
2018-11-23T02:12:04.645Z,1.58
2018-11-23T02:14:32.772Z,1.43
2018-11-23T02:17:00.945Z,1.60
2018-11-23T02:19:29.260Z,1.59
2018-11-23T02:21:57.497Z,1.53
2018-11-23T02:24:25.665Z,1.65
2018-11-23T02:26:53.799Z,1.62
2018-11-23T02:29:21.938Z,1.80
2018-11-23T02:31:50.179Z,1.65
2018-11-23T02:34:18.421Z,1.52
2018-11-23T02:36:46.635Z,1.62
2018-11-23T02:39:14.721Z,1.61
2018-11-23T02:41:42.842Z,1.69
2018-11-23T02:44:11.041Z,1.61
2018-11-23T02:46:39.223Z,1.67
2018-11-23T02:49:07.349Z,1.51
2018-11-23T02:51:35.505Z,1.51
2018-11-23T02:54:03.642Z,1.64
2018-11-23T02:56:40.618Z,1.76
2018-11-23T02:59:08.691Z,1.68
2018-11-23T03:01:36.793Z,1.56
2018-11-23T03:04:05.479Z,1.56
2018-11-23T03:06:33.789Z,1.61
2018-11-23T03:09:09.349Z,1.64
2018-11-23T03:11:39.418Z,1.70
2018-11-23T03:14:08.011Z,1.64
2018-11-23T03:16:36.532Z,1.72
2018-11-23T03:19:05.080Z,1.57
2018-11-23T03:21:33.207Z,1.63
2018-11-23T03:24:01.404Z,1.71
2018-11-23T03:26:29.555Z,1.54
2018-11-23T03:28:57.733Z,1.66
2018-11-23T03:31:26.614Z,1.56
2018-11-23T03:33:55.291Z,1.79
2018-11-23T03:36:24.200Z,1.60
2018-11-23T03:38:52.693Z,1.69
2018-11-23T03:41:20.921Z,1.62
2018-11-23T03:43:49.053Z,1.69
2018-11-23T03:46:17.166Z,1.63
2018-11-23T03:48:45.364Z,1.52
2018-11-23T03:51:13.683Z,1.59
2018-11-23T03:53:41.827Z,1.70
2018-11-23T03:56:09.990Z,1.77
2018-11-23T03:58:38.124Z,1.78
2018-11-23T04:01:06.665Z,1.78
2018-11-23T04:03:34.845Z,1.72
2018-11-23T04:06:03.186Z,1.54
2018-11-23T04:08:31.320Z,1.52
2018-11-23T04:10:59.459Z,1.61
2018-11-23T04:13:27.670Z,1.39
2018-11-23T04:15:55.812Z,1.54
2018-11-23T04:18:23.922Z,1.45
2018-11-23T04:20:57.453Z,1.58
2018-11-23T04:23:25.651Z,1.60
2018-11-23T04:25:54.006Z,1.66
2018-11-23T04:28:22.133Z,1.67
2018-11-23T04:30:50.291Z,1.64
2018-11-23T04:33:18.499Z,1.73
2018-11-23T04:35:46.620Z,1.64
2018-11-23T04:38:14.712Z,1.73
2018-11-23T04:40:42.880Z,1.73
2018-11-23T04:43:11.172Z,1.64
2018-11-23T04:45:39.384Z,1.73
2018-11-23T04:48:07.579Z,1.51
2018-11-23T04:50:35.719Z,1.59
2018-11-23T04:53:03.912Z,1.70
2018-11-23T04:55:32.068Z,1.69
2018-11-23T04:58:00.241Z,1.76
2018-11-23T05:00:28.390Z,1.68
2018-11-23T05:02:56.526Z,1.66
2018-11-23T05:05:24.681Z,1.69
2018-11-23T05:07:52.829Z,1.75
2018-11-23T05:10:20.956Z,1.52
2018-11-23T05:12:50.121Z,1.52
2018-11-23T05:15:19.011Z,1.57
2018-11-23T05:17:47.565Z,1.64
2018-11-23T05:20:16.314Z,1.62
2018-11-23T05:22:44.803Z,1.61
2018-11-23T05:25:14.293Z,1.56
2018-11-23T05:27:42.465Z,1.62
2018-11-23T05:30:12.678Z,1.65
2018-11-23T05:32:40.857Z,1.50
2018-11-23T05:35:09.995Z,1.53
2018-11-23T05:37:38.374Z,1.55
2018-11-23T05:40:09.108Z,1.36
2018-11-23T05:42:37.495Z,1.40
2018-11-23T05:45:07.432Z,1.29
2018-11-23T05:47:35.800Z,1.34
2018-11-23T05:50:04.663Z,1.43
2018-11-23T05:52:32.812Z,1.55
2018-11-23T05:55:00.974Z,1.60
2018-11-23T05:57:29.156Z,1.66
2018-11-23T05:59:57.403Z,1.52
2018-11-23T06:02:25.656Z,1.77
2018-11-23T06:04:53.872Z,1.85
2018-11-23T06:07:22.015Z,1.93
2018-11-23T06:09:50.259Z,1.82
2018-11-23T06:12:18.469Z,1.81
2018-11-23T06:14:46.645Z,1.68
2018-11-23T06:17:14.824Z,1.72
2018-11-23T06:19:43.009Z,1.76
2018-11-23T06:22:11.182Z,1.75
2018-11-23T06:24:39.365Z,1.91
2018-11-23T06:27:07.540Z,1.97
2018-11-23T06:29:35.686Z,1.86
2018-11-23T06:32:03.856Z,1.78
2018-11-23T06:34:32.163Z,1.97
2018-11-23T06:37:00.310Z,1.88
2018-11-23T06:39:28.485Z,1.83
2018-11-23T06:41:56.640Z,1.98
2018-11-23T06:44:29.872Z,1.84
2018-11-23T06:46:58.005Z,1.95
2018-11-23T06:49:26.506Z,1.94
2018-11-23T06:51:54.654Z,1.85
2018-11-23T06:54:22.826Z,1.98
2018-11-23T06:56:50.967Z,1.88
2018-11-23T06:59:19.200Z,1.92
2018-11-23T07:01:47.450Z,1.75
2018-11-23T07:04:15.616Z,1.97
2018-11-23T07:06:43.799Z,1.97
2018-11-23T07:09:12.000Z,1.96
2018-11-23T07:11:40.170Z,2.01
2018-11-23T07:14:08.324Z,1.92
2018-11-23T07:16:36.540Z,1.89
2018-11-23T07:19:04.727Z,2.00
2018-11-23T07:21:32.915Z,1.99
2018-11-23T07:24:01.117Z,2.00
2018-11-23T07:26:29.276Z,2.10
2018-11-23T07:28:57.438Z,2.13
2018-11-23T07:31:25.626Z,1.99
2018-11-23T07:33:53.812Z,2.08
2018-11-23T07:36:22.014Z,2.04
2018-11-23T07:38:50.216Z,2.14
2018-11-23T07:41:29.719Z,2.07
2018-11-23T07:43:57.878Z,2.22
2018-11-23T07:46:26.098Z,2.34
2018-11-23T07:48:54.293Z,2.32
2018-11-23T07:51:22.551Z,2.26
2018-11-23T07:53:50.793Z,2.27
2018-11-23T07:56:18.986Z,2.24
2018-11-23T07:58:47.429Z,2.21
2018-11-23T08:01:15.634Z,2.14
2018-11-23T08:03:43.872Z,2.29
2018-11-23T08:06:12.028Z,2.27
2018-11-23T08:08:40.190Z,2.05
2018-11-23T08:11:09.074Z,2.19
2018-11-23T08:13:38.089Z,2.19
2018-11-23T08:16:06.644Z,2.28
2018-11-23T08:18:34.823Z,2.35
2018-11-23T08:21:02.919Z,2.53
2018-11-23T08:23:31.085Z,2.41
2018-11-23T08:25:59.370Z,2.52
2018-11-23T08:28:27.537Z,2.52
2018-11-23T08:30:55.685Z,2.36
2018-11-23T08:33:23.839Z,2.46
2018-11-23T08:35:51.940Z,2.61
2018-11-23T08:38:20.107Z,2.52
2018-11-23T08:40:48.307Z,2.43
2018-11-23T08:43:16.411Z,2.22
2018-11-23T08:45:44.603Z,2.29
2018-11-23T08:48:12.758Z,2.35
2018-11-23T08:50:41.033Z,2.48
2018-11-23T08:53:09.203Z,2.66
2018-11-23T08:55:37.377Z,2.45
2018-11-23T08:58:05.596Z,2.51
2018-11-23T09:00:33.761Z,2.59
2018-11-23T09:03:02.879Z,2.71
2018-11-23T09:05:31.019Z,2.49
2018-11-23T09:07:59.461Z,2.56
2018-11-23T09:10:29.021Z,2.74
2018-11-23T09:12:59.470Z,2.68
2018-11-23T09:15:27.669Z,2.59
2018-11-23T09:17:55.806Z,2.64
2018-11-23T09:20:24.090Z,2.56
2018-11-23T09:22:52.191Z,2.76
2018-11-23T09:25:21.721Z,2.63
2018-11-23T09:27:49.911Z,2.68
2018-11-23T09:30:20.749Z,2.60
2018-11-23T09:32:49.631Z,2.70
2018-11-23T09:35:17.798Z,2.67
2018-11-23T09:37:46.451Z,2.88
2018-11-23T09:40:17.991Z,2.81
2018-11-23T09:42:46.289Z,2.79
2018-11-23T09:45:16.701Z,2.77
2018-11-23T09:47:45.905Z,2.56
2018-11-23T09:50:15.520Z,2.71
2018-11-23T09:52:44.132Z,2.67
2018-11-23T09:55:12.350Z,2.90
2018-11-23T09:57:41.043Z,2.91
2018-11-23T10:00:12.651Z,3.02
2018-11-23T10:02:41.487Z,2.88
2018-11-23T10:05:10.638Z,2.99
2018-11-23T10:07:38.825Z,2.90
2018-11-23T10:10:08.257Z,3.04
2018-11-23T10:12:36.588Z,2.80
2018-11-23T10:15:05.188Z,2.95
2018-11-23T10:17:33.309Z,2.86
2018-11-23T10:20:01.563Z,2.71
2018-11-23T10:22:29.807Z,2.68
2018-11-23T10:24:58.162Z,2.83
2018-11-23T10:27:26.577Z,2.98
2018-11-23T10:29:55.394Z,3.08
2018-11-23T10:32:23.195Z,2.84
2018-11-23T10:34:51.432Z,3.00
2018-11-23T10:37:19.833Z,3.01
2018-11-23T10:39:48.323Z,3.14
2018-11-23T10:42:16.519Z,2.98
2018-11-23T10:44:44.717Z,2.93
2018-11-23T10:47:13.010Z,2.99
2018-11-23T10:49:41.315Z,2.98
2018-11-23T10:52:09.549Z,2.93
2018-11-23T10:54:37.774Z,3.16
2018-11-23T10:57:06.162Z,2.99
2018-11-23T10:59:34.547Z,3.06
2018-11-23T11:02:02.969Z,3.16
2018-11-23T11:04:36.606Z,3.19
2018-11-23T11:07:06.762Z,3.20
2018-11-23T11:09:35.112Z,3.17
2018-11-23T11:12:03.384Z,3.25
2018-11-23T11:14:31.647Z,3.20
2018-11-23T11:16:59.833Z,3.14
2018-11-23T11:19:28.039Z,3.30
2018-11-23T11:21:56.261Z,3.40
2018-11-23T11:24:24.449Z,3.34
2018-11-23T11:26:52.805Z,3.24
2018-11-23T11:29:20.966Z,3.25
2018-11-23T11:31:49.583Z,3.28
2018-11-23T11:34:17.789Z,3.32
2018-11-23T11:36:46.128Z,3.32
2018-11-23T11:39:14.465Z,3.25
2018-11-23T11:41:42.707Z,3.29
2018-11-23T11:44:10.921Z,3.29
2018-11-23T11:46:39.151Z,3.32
2018-11-23T11:49:07.357Z,3.43
2018-11-23T11:51:35.634Z,3.33
2018-11-23T11:54:03.777Z,3.57
2018-11-23T11:56:32.098Z,3.57
2018-11-23T11:59:00.211Z,3.53
2018-11-23T12:01:28.400Z,3.47
2018-11-23T12:03:57.254Z,3.45
2018-11-23T12:06:25.459Z,3.51
2018-11-23T12:08:53.632Z,3.48
2018-11-23T12:11:22.098Z,3.49
2018-11-23T12:13:50.381Z,3.48
2018-11-23T12:16:18.560Z,3.36
2018-11-23T12:18:47.018Z,3.41
2018-11-23T12:21:15.238Z,3.45
2018-11-23T12:23:43.623Z,3.45
2018-11-23T12:26:11.891Z,3.30
2018-11-23T12:28:40.115Z,3.41
2018-11-23T12:31:08.363Z,3.34
2018-11-23T12:33:36.595Z,3.36
2018-11-23T12:36:04.878Z,3.53
2018-11-23T12:38:33.081Z,3.53
2018-11-23T12:41:01.313Z,3.56
2018-11-23T12:43:29.484Z,3.67
2018-11-23T12:45:57.693Z,3.63
2018-11-23T12:48:25.850Z,3.57
2018-11-23T12:50:54.069Z,3.50
2018-11-23T12:53:22.294Z,3.62
2018-11-23T12:55:50.611Z,3.78
2018-11-23T12:58:18.923Z,3.85
2018-11-23T13:00:47.139Z,3.77
2018-11-23T13:03:15.359Z,3.66
2018-11-23T13:05:43.672Z,3.62
2018-11-23T13:08:12.881Z,3.71
2018-11-23T13:10:41.081Z,3.61
2018-11-23T13:13:09.330Z,3.64
2018-11-23T13:15:37.549Z,3.68
2018-11-23T13:18:05.963Z,3.73
2018-11-23T13:20:34.105Z,3.67
2018-11-23T13:23:02.346Z,3.49
2018-11-23T13:25:32.087Z,3.56
2018-11-23T13:28:00.338Z,3.59
2018-11-23T13:30:30.030Z,3.68
2018-11-23T13:32:58.281Z,3.63
2018-11-23T13:35:26.449Z,3.66
2018-11-23T13:37:54.751Z,3.65
2018-11-23T13:40:24.411Z,3.70
2018-11-23T13:42:53.192Z,3.55
2018-11-23T13:45:22.680Z,3.56
2018-11-23T13:47:50.802Z,3.66
2018-11-23T13:50:20.155Z,3.66
2018-11-23T13:52:49.258Z,3.76
2018-11-23T13:55:18.188Z,3.77
2018-11-23T13:57:47.743Z,3.70
2018-11-23T14:00:18.178Z,3.66
2018-11-23T14:02:47.021Z,3.54
2018-11-23T14:05:17.508Z,3.55
2018-11-23T14:07:46.939Z,3.55
2018-11-23T14:10:16.569Z,3.43
2018-11-23T14:12:45.127Z,3.52
2018-11-23T14:15:18.149Z,3.60
2018-11-23T14:17:47.255Z,3.71
2018-11-23T14:20:16.324Z,3.64
2018-11-23T14:22:44.500Z,3.63
2018-11-23T14:25:14.195Z,3.77
2018-11-23T14:27:43.037Z,3.81
2018-11-23T14:30:13.785Z,3.86
2018-11-23T14:32:42.068Z,3.78
2018-11-23T14:35:12.549Z,3.71
2018-11-23T14:37:41.217Z,3.70
2018-11-23T14:40:10.493Z,3.74
2018-11-23T14:42:39.496Z,3.77
2018-11-23T14:45:10.438Z,3.74
2018-11-23T14:47:38.894Z,3.80
2018-11-23T14:50:09.810Z,3.81
2018-11-23T14:52:38.040Z,3.78
2018-11-23T14:55:07.928Z,3.74
2018-11-23T14:57:36.450Z,3.77
2018-11-23T15:00:07.823Z,3.78
2018-11-23T15:02:36.060Z,3.74
2018-11-23T15:05:04.343Z,3.81
2018-11-23T15:07:32.625Z,3.70
2018-11-23T15:10:00.905Z,3.60
2018-11-23T15:12:29.167Z,3.67
2018-11-23T15:14:57.437Z,3.77
2018-11-23T15:17:25.646Z,3.80
2018-11-23T15:19:53.847Z,3.78
2018-11-23T15:22:22.131Z,3.59
2018-11-23T15:24:50.479Z,3.71
2018-11-23T15:27:18.684Z,3.68
2018-11-23T15:29:46.951Z,3.78
2018-11-23T15:32:15.216Z,3.91
2018-11-23T15:34:43.623Z,3.83
2018-11-23T15:37:11.895Z,3.70
2018-11-23T15:39:40.226Z,3.76
2018-11-23T15:42:08.670Z,3.81
2018-11-23T15:44:36.949Z,3.76
2018-11-23T15:47:05.506Z,3.69
2018-11-23T15:49:33.710Z,3.82
2018-11-23T15:52:01.909Z,3.74
2018-11-23T15:54:30.138Z,3.66
2018-11-23T15:56:58.376Z,3.81
2018-11-23T15:59:26.606Z,3.88
2018-11-23T16:01:54.819Z,3.84
2018-11-23T16:04:23.104Z,3.74
2018-11-23T16:06:51.286Z,3.88
2018-11-23T16:09:19.655Z,3.83
2018-11-23T16:11:48.286Z,3.75
2018-11-23T16:14:17.583Z,3.89
2018-11-23T16:16:45.750Z,3.80
2018-11-23T16:19:13.982Z,3.91
2018-11-23T16:21:42.198Z,3.90
2018-11-23T16:24:10.418Z,3.94
2018-11-23T16:26:38.561Z,3.89
2018-11-23T16:29:06.800Z,3.89
2018-11-23T16:31:34.978Z,3.87
2018-11-23T16:34:03.232Z,3.87
2018-11-23T16:36:31.405Z,3.91
2018-11-23T16:38:59.588Z,3.95
2018-11-23T16:41:27.771Z,3.85
2018-11-23T16:43:55.948Z,3.94
2018-11-23T16:46:24.197Z,3.98
2018-11-23T16:48:52.360Z,4.03
2018-11-23T16:51:20.520Z,4.06
2018-11-23T16:53:48.694Z,3.97
2018-11-23T16:56:16.891Z,3.96
2018-11-23T16:58:45.076Z,3.95
2018-11-23T17:01:13.353Z,3.99
2018-11-23T17:03:41.680Z,3.95
2018-11-23T17:06:09.920Z,3.93
2018-11-23T17:08:39.898Z,4.02
2018-11-23T17:11:06.640Z,4.07
2018-11-23T17:13:34.940Z,3.96
2018-11-23T17:16:03.269Z,3.95
2018-11-23T17:18:31.586Z,3.90
2018-11-23T17:20:59.851Z,3.97
2018-11-23T17:23:28.100Z,3.93
2018-11-23T17:25:56.425Z,4.03
2018-11-23T17:28:24.624Z,3.92
2018-11-23T17:30:53.004Z,3.97
2018-11-23T17:33:21.428Z,3.92
2018-11-23T17:35:49.814Z,3.90
2018-11-23T17:38:18.023Z,3.88
2018-11-23T17:40:46.305Z,3.85
2018-11-23T17:43:14.510Z,3.94
2018-11-23T17:45:42.750Z,4.02
2018-11-23T17:48:11.032Z,3.94
2018-11-23T17:50:40.218Z,4.00
2018-11-23T17:53:08.508Z,4.03
2018-11-23T17:55:36.810Z,3.86
2018-11-23T17:58:05.828Z,3.92
2018-11-23T18:00:39.249Z,3.95
2018-11-23T18:03:03.833Z,3.96
2018-11-23T18:05:32.927Z,4.03
2018-11-23T18:08:01.784Z,3.86
2018-11-23T18:10:31.186Z,3.99
2018-11-23T18:13:00.312Z,3.94
2018-11-23T18:15:29.867Z,3.86
2018-11-23T18:17:59.212Z,3.84
2018-11-23T18:20:28.367Z,3.78
2018-11-23T18:22:57.347Z,3.78
2018-11-23T18:25:31.293Z,3.78
2018-11-23T18:28:00.602Z,3.93
2018-11-23T18:30:29.958Z,3.98
2018-11-23T18:32:58.235Z,3.99
2018-11-23T18:35:26.541Z,3.88
2018-11-23T18:37:54.796Z,3.82
2018-11-23T18:40:23.005Z,3.93
2018-11-23T18:42:51.193Z,3.85
2018-11-23T18:45:19.360Z,3.92
2018-11-23T18:47:47.586Z,3.99
2018-11-23T18:50:17.722Z,3.90
2018-11-23T18:52:46.040Z,3.87
2018-11-23T18:55:18.321Z,3.95
2018-11-23T18:57:43.203Z,3.94
2018-11-23T19:00:13.483Z,3.99
2018-11-23T19:02:42.158Z,3.92
2018-11-23T19:05:12.012Z,3.96
2018-11-23T19:07:40.254Z,3.93
2018-11-23T19:10:10.229Z,3.96
2018-11-23T19:12:38.389Z,3.88
2018-11-23T19:15:09.376Z,4.00
2018-11-23T19:17:37.647Z,3.81
2018-11-23T19:20:10.557Z,3.85
2018-11-23T19:22:38.852Z,3.79
2018-11-23T19:25:07.172Z,3.80
2018-11-23T19:27:35.448Z,3.88
2018-11-23T19:30:03.878Z,3.90
2018-11-23T19:32:32.111Z,3.97
2018-11-23T19:35:00.304Z,4.00
2018-11-23T19:37:28.477Z,3.89
2018-11-23T19:39:56.712Z,3.91
2018-11-23T19:42:27.812Z,3.79
2018-11-23T19:44:56.092Z,3.75
2018-11-23T19:47:24.314Z,3.79
2018-11-23T19:49:52.560Z,3.98
2018-11-23T19:52:20.887Z,3.86
2018-11-23T19:54:50.068Z,3.92
2018-11-23T19:57:18.284Z,3.79
2018-11-23T19:59:46.512Z,3.90
2018-11-23T20:02:14.754Z,3.88
2018-11-23T20:04:43.000Z,3.85
2018-11-23T20:07:11.515Z,3.95
2018-11-23T20:09:40.132Z,3.91
2018-11-23T20:12:08.160Z,3.85
2018-11-23T20:14:36.513Z,3.89
2018-11-23T20:17:05.138Z,3.89
2018-11-23T20:19:33.408Z,3.90
2018-11-23T20:22:01.674Z,3.92
2018-11-23T20:24:31.051Z,3.94
2018-11-23T20:26:59.318Z,3.87
2018-11-23T20:29:27.513Z,3.90
2018-11-23T20:31:55.775Z,3.99
2018-11-23T20:34:24.043Z,3.99
2018-11-23T20:36:52.250Z,3.99
2018-11-23T20:39:20.919Z,4.18
2018-11-23T20:41:49.130Z,3.96
2018-11-23T20:44:17.360Z,3.99
2018-11-23T20:46:45.660Z,3.87
2018-11-23T20:49:13.862Z,3.95
2018-11-23T20:51:42.148Z,3.90
2018-11-23T20:54:10.387Z,3.85
2018-11-23T20:56:38.670Z,3.91
2018-11-23T20:59:06.895Z,4.00
2018-11-23T21:01:35.264Z,4.02
2018-11-23T21:04:03.534Z,3.94
2018-11-23T21:06:31.773Z,3.66
2018-11-23T21:09:00.358Z,3.76
2018-11-23T21:11:28.583Z,3.70
2018-11-23T21:13:56.845Z,3.62
2018-11-23T21:16:26.026Z,3.56
2018-11-23T21:18:54.302Z,3.56
2018-11-23T21:21:22.613Z,3.62
2018-11-23T21:23:50.863Z,3.60
2018-11-23T21:26:19.096Z,3.59
2018-11-23T21:28:47.329Z,3.63
2018-11-23T21:31:15.563Z,3.57
2018-11-23T21:33:43.781Z,3.52
2018-11-23T21:36:12.021Z,3.62
2018-11-23T21:38:40.264Z,3.57
2018-11-23T21:41:08.510Z,3.55
2018-11-23T21:43:36.846Z,3.55
2018-11-23T21:46:05.273Z,3.48
2018-11-23T21:48:33.501Z,3.40
2018-11-23T21:51:01.762Z,3.42
2018-11-23T21:53:30.023Z,3.40
2018-11-23T21:55:58.261Z,3.47
2018-11-23T21:58:26.499Z,3.57
2018-11-23T22:00:55.869Z,3.55
2018-11-23T22:03:24.090Z,3.51
2018-11-23T22:05:52.340Z,3.47
2018-11-23T22:08:20.534Z,3.35
2018-11-23T22:10:48.799Z,3.35
2018-11-23T22:13:17.007Z,3.21
2018-11-23T22:15:45.280Z,3.28
2018-11-23T22:18:13.495Z,3.10
2018-11-23T22:20:42.604Z,3.23
2018-11-23T22:23:10.783Z,3.24
2018-11-23T22:25:39.121Z,3.33
2018-11-23T22:28:07.427Z,3.17
2018-11-23T22:30:35.618Z,3.09
2018-11-23T22:33:03.872Z,3.19
2018-11-23T22:35:32.036Z,3.08
2018-11-23T22:38:00.372Z,3.02
2018-11-23T22:40:28.514Z,3.04
2018-11-23T22:42:57.761Z,3.13
2018-11-23T22:45:25.954Z,3.18
2018-11-23T22:47:54.211Z,3.06
2018-11-23T22:50:23.135Z,2.98
2018-11-23T22:52:51.461Z,3.04
2018-11-23T22:55:20.019Z,3.09
2018-11-23T22:57:48.176Z,3.19
2018-11-23T23:00:22.733Z,3.16
2018-11-23T23:02:51.079Z,3.20
2018-11-23T23:05:22.345Z,3.24
2018-11-23T23:07:50.662Z,3.19
2018-11-23T23:10:18.894Z,3.31
2018-11-23T23:12:47.165Z,3.22
2018-11-23T23:15:15.382Z,3.18
2018-11-23T23:17:43.619Z,2.97
2018-11-23T23:20:13.011Z,3.02
2018-11-23T23:22:41.230Z,2.94
2018-11-23T23:25:10.527Z,3.03
2018-11-23T23:27:38.762Z,2.97
2018-11-23T23:30:12.273Z,3.03
2018-11-23T23:32:40.599Z,3.03
2018-11-23T23:35:09.720Z,2.99
2018-11-23T23:37:37.992Z,3.11
2018-11-23T23:40:17.776Z,3.13
2018-11-23T23:42:46.449Z,3.01
2018-11-23T23:45:15.651Z,2.84
2018-11-23T23:47:50.278Z,2.85
2018-11-23T23:50:22.100Z,2.67
2018-11-23T23:52:50.891Z,2.59
2018-11-23T23:55:19.009Z,2.60
2018-11-23T23:57:47.761Z,2.69
